Hiei — JD3800 — position and weather

sailwx.info

Track history (hours):
 
Tides and Currents Weather Stations Pressure Air Temp Water Temp Dewpoint Dewpoint Depression Visibility Wind Speed Wind Dir Waves Ship Positions

Hiei

Last reported at 2017-Sep-18 22:55 UTC. Time now 2017-Sep-24 15:49 UTC.
Position N 34°39' E 135°29'.

Length 36 m; draft 3.8 m.

Type: Tug. MMSI: 431006214.

Date/timePositionNaut miles runAvg speedWind from/ knotsBaromVisibWave heightAir tempDewpointWater temp
2017-Sep-18 22:55N 34°39' E 135°29'3 0.2
2017-Sep-18 06:49N 34°39' E 135°25'1 1.6
2017-Sep-18 06:25N 34°39' E 135°25'0 0.1
2017-Sep-18 06:00N 34°39' E 135°25'2 3.2
2017-Sep-18 05:30N 34°38' E 135°24'510.1
2017-Sep-18 05:00N 34°33' E 135°25'1 0.0
2017-Sep-17 01:47N 34°33' E 135°27'5 0.1
2017-Sep-15 06:43N 34°30' E 135°22'211.2
2017-Sep-15 06:30N 34°28' E 135°21'2 4.4
2017-Sep-15 06:00N 34°27' E 135°18'610.7
2017-Sep-15 05:27N 34°24' E 135°13'2 1.1
2017-Sep-15 03:42N 34°25' E 135°14'0 0.1
2017-Sep-15 03:21N 34°25' E 135°14'0 0.0
2017-Sep-14 23:52N 34°25' E 135°14'3 6.9
2017-Sep-14 23:24N 34°25' E 135°10'0 0.9
2017-Sep-14 23:00N 34°25' E 135°11'2 4.7
2017-Sep-14 22:28N 34°25' E 135°14'611.2
2017-Sep-14 21:57N 34°28' E 135°20'  
2017-Sep-10 06:09N 34°39' E 135°24'0 0.6
2017-Sep-10 06:00N 34°39' E 135°24'2 3.6
2017-Sep-10 05:30N 34°37' E 135°23'4 7.9
2017-Sep-10 04:59N 34°33' E 135°25'1 1.2
2017-Sep-10 04:30N 34°33' E 135°25'3 6.6
2017-Sep-10 04:00N 34°33' E 135°21'  
Track history (hours):
 
Tides and Currents Weather Stations Pressure Air Temp Water Temp Dewpoint Dewpoint Depression Visibility Wind Speed Wind Dir Waves Ship Positions

Hiei

Last reported at 2017-Sep-18 22:55 UTC. Time now 2017-Sep-24 15:49 UTC.
Position N 34°39' E 135°29'.

Length 36 m; draft 3.8 m.

Type: Tug. MMSI: 431006214.

Date/timePositionNaut miles runAvg speedWind from/ knotsBaromVisibWave heightAir tempDewpointWater temp
2017-Sep-18 22:55N 34°39' E 135°29'3 0.2
2017-Sep-18 06:49N 34°39' E 135°25'1 1.6
2017-Sep-18 06:25N 34°39' E 135°25'0 0.1
2017-Sep-18 06:00N 34°39' E 135°25'2 3.2
2017-Sep-18 05:30N 34°38' E 135°24'510.1
2017-Sep-18 05:00N 34°33' E 135°25'1 0.0
2017-Sep-17 01:47N 34°33' E 135°27'5 0.1
2017-Sep-15 06:43N 34°30' E 135°22'211.2
2017-Sep-15 06:30N 34°28' E 135°21'2 4.4
2017-Sep-15 06:00N 34°27' E 135°18'610.7
2017-Sep-15 05:27N 34°24' E 135°13'2 1.1
2017-Sep-15 03:42N 34°25' E 135°14'0 0.1
2017-Sep-15 03:21N 34°25' E 135°14'0 0.0
2017-Sep-14 23:52N 34°25' E 135°14'3 6.9
2017-Sep-14 23:24N 34°25' E 135°10'0 0.9
2017-Sep-14 23:00N 34°25' E 135°11'2 4.7
2017-Sep-14 22:28N 34°25' E 135°14'611.2
2017-Sep-14 21:57N 34°28' E 135°20'  
2017-Sep-10 06:09N 34°39' E 135°24'0 0.6
2017-Sep-10 06:00N 34°39' E 135°24'2 3.6
2017-Sep-10 05:30N 34°37' E 135°23'4 7.9
2017-Sep-10 04:59N 34°33' E 135°25'1 1.2
2017-Sep-10 04:30N 34°33' E 135°25'3 6.6
2017-Sep-10 04:00N 34°33' E 135°21'  

Dump ship's entire track history